Accueil
METAR-TAF:

METAR-TAF

Aéroports :

Aéroport de Pago Pago

Pago Pago, Îles mineures éloignées des États-Unis

latitude: 14-20S, longitude: 170-43W, altitude: 3 m

Observation

Le bulletin a été fait il y a 49 minutes, à 10:00 UTC
Vent 10 kt de est/sud-est
Température 27°C
Humidité 79%
Pression 1013 hPa
Visibilité: 16.1 km
Nuages épars à une hauteur de 1600 ft, Cumulus congestus.
Nuages fragmentés à une hauteur de 4000 ft

METAR: NSTU 221000Z 11010KT 10SM SCT016TCU BKN040 27/23 A2990 RMK TCU ALQDS SLP125 T02680232

Heure: 23:49 (10:49 UTC)

Prévision

Le bulletin a été fait il y a 5 heures et 10 minutes, à 05:39 UTC
Prévision valable du 22 à 06 UTC au 23 à 06 UTC
Vent 8 kt de sud-est
Visibilité: 10 km
Quelques nuages à une hauteur de 2000 ft
Nuages épars à une hauteur de 4000 ft
Nuages fragmentés à une hauteur de 10000 ft

TAF: NSTU 220539Z 2206/2306 13008KT P6SM FEW020 SCT040 BKN100

Observations et prévisions météorologiques de plus de 4000 aéroports (messages METAR et TAF).

Les stations disponibles sont représentées par des disques jaunes et rouges sur la carte.

Passer la souris dessus pour voir le nom de la station.

Cliquer dessus pour voir les observations et prévisions météorologiques.

Pour changer de carte: cliquez sur les boutons verts avec une croix noire pour zoomer, sur le bouton vert avec un tiret pour effectuer un zoom arrière, ou sur les flèches vertes pour les cartes adjacentes.


METAR-TAF: